Time;durP1;ratioP1;P1;durP2;ratioP2;P2;SDS_P1;SDS_P2;PMS_P1;PMS_P2;Temp;Humidity;BMP_temperature;BMP_pressure;BME280_temperature;BME280_humidity;BME280_pressure;Samples;Min_cycle;Max_cycle;Signal;HPM_P1;HPM_P2
2022/01/07 00:00:17;;;;;;;16.15;7.43;;;;;;;1.95;88.12;101333.91;1022997;28;20323;-76
2022/01/07 00:00:49;;;;;;;16.27;8.02;;;;;;;1.96;88.12;101320.63;1026889;28;20921;-76
2022/01/07 00:01:21;;;;;;;28.15;8.70;;;;;;;2.01;88.01;101330.69;1027563;28;20776;-76
2022/01/07 00:01:53;;;;;;;16.75;8.43;;;;;;;1.99;88.34;101341.34;1026933;28;20797;-76
2022/01/07 00:02:24;;;;;;;18.17;7.90;;;;;;;2.00;87.04;101321.97;1026867;28;20718;-76
2022/01/07 00:02:57;;;;;;;23.08;8.07;;;;;;;2.03;87.48;101323.47;1027363;28;20278;-76
2022/01/07 00:03:34;;;;;;;21.80;8.13;;;;;;;2.02;87.65;101324.44;1025412;28;20356;-77
2022/01/07 00:04:06;;;;;;;13.32;7.47;;;;;;;2.04;87.32;101318.06;1022965;29;20283;-76
2022/01/07 00:04:38;;;;;;;22.73;8.43;;;;;;;2.02;87.17;101322.66;1018817;29;20292;-76
2022/01/07 00:05:10;;;;;;;16.73;7.38;;;;;;;2.01;87.03;101325.44;1019306;29;20289;-76
2022/01/07 00:05:42;;;;;;;18.38;8.32;;;;;;;2.05;87.29;101324.97;1018995;28;20287;-76
2022/01/07 00:06:13;;;;;;;18.35;7.70;;;;;;;2.05;87.48;101324.97;1026976;28;20278;-76
2022/01/07 00:06:45;;;;;;;17.50;7.97;;;;;;;2.05;86.90;101319.72;1026992;28;20286;-76
2022/01/07 00:07:16;;;;;;;21.35;8.70;;;;;;;2.11;86.97;101315.66;1026987;28;20638;-76
2022/01/07 00:07:48;;;;;;;15.55;7.22;;;;;;;2.10;86.63;101327.97;1026600;28;20294;-79
2022/01/07 00:08:20;;;;;;;18.05;8.48;;;;;;;2.06;86.98;101310.88;1017347;29;20640;-79
2022/01/07 00:08:51;;;;;;;17.15;7.35;;;;;;;2.08;86.48;101319.41;1017629;29;20310;-80
2022/01/07 00:09:23;;;;;;;21.10;7.70;;;;;;;2.08;86.57;101308.91;1015299;29;20292;-79
2022/01/07 00:09:54;;;;;;;17.75;8.05;;;;;;;2.10;86.65;101312.22;1019659;29;20292;-79
2022/01/07 00:10:26;;;;;;;16.85;7.07;;;;;;;2.08;86.33;101308.91;1020047;29;20291;-76
2022/01/07 00:10:57;;;;;;;16.00;6.63;;;;;;;2.08;86.54;101314.16;1022883;29;20287;-76
2022/01/07 00:11:29;;;;;;;17.17;7.68;;;;;;;2.07;86.51;101317.78;1017067;29;20291;-76
2022/01/07 00:12:00;;;;;;;16.17;7.30;;;;;;;2.13;86.82;101319.78;1019769;29;20518;-76
2022/01/07 00:12:32;;;;;;;20.92;8.00;;;;;;;2.13;86.36;101317.16;1018706;29;20309;-76
2022/01/07 00:13:04;;;;;;;17.25;7.15;;;;;;;2.09;86.25;101313.19;1015860;29;20764;-76
2022/01/07 00:13:36;;;;;;;21.27;7.70;;;;;;;2.06;86.47;101313.50;1023159;29;20382;-76
2022/01/07 00:14:07;;;;;;;17.77;7.53;;;;;;;2.08;86.96;101308.91;1020503;28;20704;-76
2022/01/07 00:14:39;;;;;;;19.88;7.18;;;;;;;2.08;86.63;101315.97;1025576;28;20284;-76
2022/01/07 00:15:11;;;;;;;18.63;7.88;;;;;;;2.08;86.49;101316.78;1027186;28;20273;-76
2022/01/07 00:15:42;;;;;;;18.27;8.38;;;;;;;2.10;86.59;101311.38;1026635;28;20286;-76
2022/01/07 00:16:16;;;;;;;18.55;6.95;;;;;;;2.14;85.93;101310.94;1024572;28;20661;-76
2022/01/07 00:16:48;;;;;;;22.00;7.75;;;;;;;2.14;86.17;101316.19;1027171;28;20282;-76
2022/01/07 00:17:19;;;;;;;14.43;7.35;;;;;;;2.15;86.41;101304.69;1021719;28;20288;-76
2022/01/07 00:17:51;;;;;;;17.92;8.23;;;;;;;2.16;85.87;101306.34;1022740;29;20294;-76
2022/01/07 00:18:23;;;;;;;17.00;8.23;;;;;;;2.14;85.79;101300.41;1019458;29;20819;-79
2022/01/07 00:18:56;;;;;;;19.23;8.00;;;;;;;2.13;86.44;101311.91;1015914;29;20282;-79
2022/01/07 00:19:27;;;;;;;16.08;7.13;;;;;;;2.15;86.01;101320.47;1020107;29;20345;-79
2022/01/07 00:19:59;;;;;;;21.83;8.98;;;;;;;2.12;86.08;101315.50;1022906;29;20293;-79
2022/01/07 00:20:31;;;;;;;17.08;7.07;;;;;;;2.13;86.52;101321.59;1024208;28;20295;-80
2022/01/07 00:21:03;;;;;;;20.83;8.40;;;;;;;2.08;86.88;101319.41;1026764;28;20290;-76
2022/01/07 00:21:34;;;;;;;16.05;7.70;;;;;;;2.08;86.77;101314.16;1026647;28;20631;-76
2022/01/07 00:22:06;;;;;;;13.23;7.43;;;;;;;2.13;87.06;101316.34;1027294;28;20694;-76
2022/01/07 00:22:38;;;;;;;19.20;8.07;;;;;;;2.11;86.76;101311.25;1026700;28;20292;-76
2022/01/07 00:23:10;;;;;;;17.35;7.95;;;;;;;2.13;86.48;101306.66;1024810;28;20650;-77
2022/01/07 00:23:41;;;;;;;19.52;9.77;;;;;;;2.14;86.67;101308.31;1031419;28;20684;-80
2022/01/07 00:24:13;;;;;;;17.65;8.30;;;;;;;2.10;86.49;101311.38;1031065;28;20278;-79
2022/01/07 00:24:44;;;;;;;13.93;6.70;;;;;;;2.14;86.52;101312.75;1030537;28;20313;-80
2022/01/07 00:25:16;;;;;;;18.58;8.68;;;;;;;2.11;87.06;101311.25;1027832;28;20273;-80
2022/01/07 00:25:48;;;;;;;12.70;7.68;;;;;;;2.09;86.59;101302.69;1026201;28;20285;-79
2022/01/07 00:26:19;;;;;;;21.13;8.75;;;;;;;2.11;86.59;101313.88;1022325;29;20297;-76
2022/01/07 00:26:51;;;;;;;15.13;7.13;;;;;;;2.09;87.09;101310.56;1019077;29;20291;-77
2022/01/07 00:27:22;;;;;;;21.30;8.05;;;;;;;2.11;86.67;101308.59;1023309;28;20287;-76
2022/01/07 00:27:55;;;;;;;18.52;9.10;;;;;;;2.10;86.58;101306.97;1022767;29;20370;-75
2022/01/07 00:28:27;;;;;;;18.27;8.27;;;;;;;2.12;87.22;101297.13;1022377;29;20279;-74
2022/01/07 00:28:58;;;;;;;22.13;10.02;;;;;;;2.12;86.80;101298.91;1023736;28;20435;-75
2022/01/07 00:29:30;;;;;;;19.27;7.28;;;;;;;2.12;86.53;101299.75;1027339;28;20286;-75
2022/01/07 00:30:03;;;;;;;20.48;8.45;;;;;;;2.11;86.64;101292.84;1027038;28;20301;-74
2022/01/07 00:30:36;;;;;;;19.08;8.00;;;;;;;2.09;86.67;101296.59;1020977;29;20279;-77
2022/01/07 00:31:08;;;;;;;16.92;8.15;;;;;;;2.10;87.04;101290.38;1018793;29;20355;-76
2022/01/07 00:31:40;;;;;;;14.88;7.95;;;;;;;2.06;86.76;101295.09;1019693;29;20290;-77
2022/01/07 00:32:12;;;;;;;17.80;8.07;;;;;;;2.06;87.05;101284.59;1023957;28;20286;-76
2022/01/07 00:32:43;;;;;;;15.75;8.27;;;;;;;2.06;87.25;101289.84;1020540;29;20286;-77
2022/01/07 00:33:15;;;;;;;15.77;7.43;;;;;;;2.15;86.93;101291.56;1023472;28;20290;-74
2022/01/07 00:33:47;;;;;;;15.23;7.65;;;;;;;2.10;87.25;101280.69;1022800;29;20305;-73
2022/01/07 00:34:18;;;;;;;15.52;7.82;;;;;;;2.06;87.66;101279.34;1023745;28;20360;-77
2022/01/07 00:34:50;;;;;;;15.95;8.00;;;;;;;2.04;87.19;101275.22;1018917;29;20660;-77
2022/01/07 00:35:23;;;;;;;19.08;7.93;;;;;;;2.06;87.43;101284.59;1018937;29;20395;-76
2022/01/07 00:35:56;;;;;;;17.33;7.40;;;;;;;2.01;87.53;101286.03;1022474;29;20278;-76
2022/01/07 00:36:27;;;;;;;21.67;9.18;;;;;;;1.98;88.27;101281.06;1020428;28;20289;-80
2022/01/07 00:36:59;;;;;;;20.17;8.68;;;;;;;1.97;87.98;101269.72;1019058;29;20373;-79
2022/01/07 00:37:30;;;;;;;16.13;7.95;;;;;;;1.96;88.17;101278.59;1019716;29;20279;-80
2022/01/07 00:38:03;;;;;;;18.38;8.30;;;;;;;1.97;88.47;101268.91;1018917;29;20279;-79
2022/01/07 00:38:35;;;;;;;17.55;8.90;;;;;;;1.98;88.26;101270.56;1015218;29;20295;-80
2022/01/07 00:39:06;;;;;;;17.92;8.45;;;;;;;2.05;88.59;101272.44;1019076;29;20990;-79
2022/01/07 00:39:38;;;;;;;20.50;8.02;;;;;;;1.97;88.63;101272.38;1019142;29;20280;-80
2022/01/07 00:40:18;;;;;;;18.48;8.93;;;;;;;2.00;88.57;101266.81;1019334;29;20291;-80
2022/01/07 00:40:49;;;;;;;12.48;8.02;;;;;;;1.97;88.50;101285.50;1019074;29;20644;-79
2022/01/07 00:41:21;;;;;;;18.25;9.00;;;;;;;1.99;87.92;101273.03;1018784;29;20445;-80
2022/01/07 00:41:52;;;;;;;16.77;8.73;;;;;;;1.97;87.69;101277.63;1022974;28;20279;-79
2022/01/07 00:42:24;;;;;;;20.80;8.65;;;;;;;2.01;87.86;101265.00;1023263;28;20283;-79
2022/01/07 00:42:55;;;;;;;15.52;7.90;;;;;;;2.02;87.57;101278.00;1026703;28;20290;-80
2022/01/07 00:43:27;;;;;;;16.70;9.27;;;;;;;2.04;87.68;101262.06;1027353;28;20418;-79
2022/01/07 00:43:59;;;;;;;19.83;9.10;;;;;;;2.01;87.72;101263.19;1023075;28;20287;-79
2022/01/07 00:44:31;;;;;;;16.70;8.57;;;;;;;2.01;87.76;101263.19;1022812;29;20373;-79
2022/01/07 00:45:03;;;;;;;23.73;8.43;;;;;;;2.01;87.95;101263.19;1023064;29;20651;-79
2022/01/07 00:45:35;;;;;;;14.57;7.97;;;;;;;2.04;88.15;101257.66;1023635;28;20279;-79
2022/01/07 00:46:06;;;;;;;22.25;11.10;;;;;;;2.02;88.10;101266.66;1022776;29;20289;-80
2022/01/07 00:46:38;;;;;;;18.02;9.32;;;;;;;2.02;87.85;101264.84;1019290;29;20775;-80
2022/01/07 00:47:10;;;;;;;19.08;8.70;;;;;;;2.02;88.34;101262.22;1015765;29;20280;-80
2022/01/07 00:47:41;;;;;;;17.75;8.68;;;;;;;2.02;87.93;101259.59;1014984;29;20288;-79
2022/01/07 00:48:13;;;;;;;18.17;8.98;;;;;;;2.06;88.10;101263.56;1018331;29;20280;-80
2022/01/07 00:48:44;;;;;;;14.35;8.02;;;;;;;2.02;87.93;101256.97;1018872;28;20276;-79
2022/01/07 00:49:21;;;;;;;17.35;7.88;;;;;;;2.02;87.83;101262.22;1026261;28;20286;-80
2022/01/07 00:49:52;;;;;;;21.13;8.60;;;;;;;2.00;88.09;101258.91;1022752;29;20282;-79
2022/01/07 00:50:27;;;;;;;21.52;8.80;;;;;;;1.98;88.03;101263.50;1022032;29;20354;-79
2022/01/07 00:50:59;;;;;;;15.50;8.52;;;;;;;2.03;88.29;101257.78;1023283;29;20290;-80
2022/01/07 00:51:31;;;;;;;16.95;8.75;;;;;;;2.02;87.65;101256.97;1024833;28;20818;-79
2022/01/07 00:52:03;;;;;;;16.45;8.93;;;;;;;2.03;87.40;101252.53;1027044;28;20293;-79
2022/01/07 00:52:34;;;;;;;21.52;9.88;;;;;;;2.01;87.28;101255.31;1027273;28;20460;-79
2022/01/07 00:53:08;;;;;;;14.90;8.35;;;;;;;2.01;87.81;101260.56;1025739;28;20293;-79
2022/01/07 00:53:41;;;;;;;17.00;10.07;;;;;;;1.99;88.04;101257.28;1022693;29;20624;-80
2022/01/07 00:54:12;;;;;;;15.65;8.82;;;;;;;2.01;88.54;101259.75;1024022;28;20283;-79
2022/01/07 00:54:44;;;;;;;18.52;8.88;;;;;;;2.02;88.21;101256.97;1026937;28;20662;-79
2022/01/07 00:55:16;;;;;;;18.80;9.20;;;;;;;2.03;87.98;101245.47;1023951;28;20279;-79
2022/01/07 00:55:48;;;;;;;19.20;9.40;;;;;;;2.00;88.18;101242.34;1022633;29;20295;-80
2022/01/07 00:56:19;;;;;;;17.33;8.60;;;;;;;1.99;88.04;101246.75;1023333;29;20287;-79
2022/01/07 00:56:51;;;;;;;22.77;9.25;;;;;;;1.99;87.72;101241.50;1019144;29;20299;-79
2022/01/07 00:57:22;;;;;;;22.55;9.32;;;;;;;2.03;87.65;101248.09;1019364;29;20629;-79
2022/01/07 00:57:54;;;;;;;17.33;8.25;;;;;;;2.02;87.65;101245.63;1023061;29;20620;-79
2022/01/07 00:58:26;;;;;;;15.40;8.07;;;;;;;2.06;87.94;101247.81;1023007;29;20758;-79
2022/01/07 00:58:57;;;;;;;13.85;8.27;;;;;;;1.99;88.22;101246.75;1022214;28;20650;-79
2022/01/07 00:59:29;;;;;;;26.58;8.85;;;;;;;1.95;87.77;101250.66;1027136;28;20824;-79
2022/01/07 01:00:01;;;;;;;18.67;8.95;;;;;;;1.98;88.13;101253.00;1026788;28;20301;-79
2022/01/07 01:00:34;;;;;;;16.30;9.45;;;;;;;2.03;88.40;101247.28;1022559;29;20349;-80
2022/01/07 01:01:05;;;;;;;19.55;8.30;;;;;;;2.01;88.29;101255.31;1021614;29;20774;-79
2022/01/07 01:01:37;;;;;;;18.92;8.27;;;;;;;2.01;88.04;101252.69;1014915;29;20843;-80
2022/01/07 01:02:09;;;;;;;23.92;9.32;;;;;;;2.00;88.02;101251.03;1015193;29;20279;-79
2022/01/07 01:02:46;;;;;;;17.05;8.82;;;;;;;1.98;88.34;101250.38;1016116;29;20733;-79
2022/01/07 01:03:17;;;;;;;17.02;8.43;;;;;;;1.98;88.32;101250.38;1016282;29;21926;-79
2022/01/07 01:03:49;;;;;;;16.75;8.60;;;;;;;1.98;88.33;101257.44;1019076;29;20370;-79
2022/01/07 01:04:21;;;;;;;15.13;8.52;;;;;;;2.05;88.24;101237.44;1022288;29;20778;-79
2022/01/07 01:04:52;;;;;;;16.58;8.45;;;;;;;2.02;87.98;101251.72;1019750;28;20377;-79
2022/01/07 01:05:24;;;;;;;16.55;8.75;;;;;;;2.04;88.56;101248.94;1027132;28;20297;-79
2022/01/07 01:05:58;;;;;;;18.38;9.43;;;;;;;2.03;87.80;101242.84;1018841;29;20287;-79
2022/01/07 01:06:30;;;;;;;24.83;9.07;;;;;;;2.03;88.34;101242.03;1019734;29;20283;-79
2022/01/07 01:07:02;;;;;;;20.05;8.32;;;;;;;2.00;88.09;101243.16;1019311;29;20283;-79
2022/01/07 01:07:33;;;;;;;15.25;9.30;;;;;;;1.95;88.30;101247.22;1019471;29;20287;-79
2022/01/07 01:08:05;;;;;;;27.52;9.48;;;;;;;1.94;88.53;101243.78;1023739;28;20282;-79
2022/01/07 01:08:37;;;;;;;19.00;8.30;;;;;;;1.95;88.45;101240.16;1027470;28;20293;-79
2022/01/07 01:09:08;;;;;;;13.75;8.10;;;;;;;1.96;88.48;101244.44;1026731;28;21126;-79
2022/01/07 01:09:40;;;;;;;17.75;9.32;;;;;;;1.96;88.73;101252.31;1022092;29;20283;-79
2022/01/07 01:10:14;;;;;;;17.00;9.63;;;;;;;1.93;89.04;101242.13;1018694;29;20311;-79
2022/01/07 01:10:46;;;;;;;15.57;7.93;;;;;;;1.96;89.29;101241.81;1019913;29;20293;-79
2022/01/07 01:11:17;;;;;;;19.35;8.75;;;;;;;1.91;89.46;101249.28;1022782;29;20294;-79
2022/01/07 01:11:49;;;;;;;17.27;8.77;;;;;;;1.90;89.14;101237.13;1018774;29;20299;-79
2022/01/07 01:12:20;;;;;;;23.20;9.63;;;;;;;1.94;89.64;101238.50;1023160;29;20286;-80
2022/01/07 01:12:54;;;;;;;17.38;9.70;;;;;;;1.94;89.35;101235.88;1018735;29;20298;-80
2022/01/07 01:13:26;;;;;;;15.85;8.80;;;;;;;1.99;89.47;101238.06;1019206;29;20303;-76
2022/01/07 01:13:58;;;;;;;19.60;9.98;;;;;;;1.95;89.53;101244.59;1015073;29;20284;-76
2022/01/07 01:14:30;;;;;;;17.92;9.50;;;;;;;1.93;89.47;101236.88;1015665;29;20303;-76
2022/01/07 01:15:03;;;;;;;18.20;9.02;;;;;;;1.93;89.92;101236.88;1019046;29;20283;-76
2022/01/07 01:15:34;;;;;;;15.52;7.82;;;;;;;1.93;89.97;101230.78;1019249;29;20664;-76
2022/01/07 01:16:06;;;;;;;20.95;9.02;;;;;;;1.92;90.32;101240.47;1022914;29;20291;-76
2022/01/07 01:16:37;;;;;;;20.45;8.75;;;;;;;1.92;89.97;101240.47;1022466;29;20301;-77
2022/01/07 01:17:09;;;;;;;22.67;9.35;;;;;;;1.91;89.89;101236.16;1023059;28;20877;-76
2022/01/07 01:17:41;;;;;;;20.83;10.85;;;;;;;1.91;90.21;101238.78;1023375;28;20286;-76
2022/01/07 01:18:13;;;;;;;19.83;10.43;;;;;;;1.91;89.83;101233.53;1022576;29;20286;-78
2022/01/07 01:18:45;;;;;;;20.08;9.07;;;;;;;1.85;90.32;101240.22;1022422;29;20305;-79
2022/01/07 01:19:16;;;;;;;15.82;9.13;;;;;;;1.84;89.89;101233.31;1023611;28;20283;-79
2022/01/07 01:19:48;;;;;;;17.63;10.20;;;;;;;1.86;90.49;101230.53;1027128;28;20274;-79
2022/01/07 01:20:20;;;;;;;17.98;9.95;;;;;;;1.84;90.33;101233.31;1026420;28;20301;-79
2022/01/07 01:20:52;;;;;;;17.77;9.38;;;;;;;1.83;90.63;101231.66;1026381;28;20304;-79
2022/01/07 01:21:24;;;;;;;14.20;8.85;;;;;;;1.84;90.78;101238.56;1022541;29;20290;-78
2022/01/07 01:21:55;;;;;;;20.40;8.77;;;;;;;1.80;90.75;101231.97;1019345;29;20389;-79
2022/01/07 01:22:27;;;;;;;17.23;9.45;;;;;;;1.80;91.00;101236.41;1021487;29;20636;-79
2022/01/07 01:22:59;;;;;;;15.73;9.48;;;;;;;1.78;91.23;101230.47;1021578;29;20860;-80
2022/01/07 01:23:30;;;;;;;18.55;9.15;;;;;;;1.79;91.64;101224.25;1023247;28;20294;-79
2022/01/07 01:24:02;;;;;;;14.95;9.30;;;;;;;1.80;91.31;101231.13;1026843;28;20673;-79
2022/01/07 01:24:34;;;;;;;18.63;9.60;;;;;;;1.83;91.05;101215.06;1026377;28;20286;-78
2022/01/07 01:25:07;;;;;;;19.45;9.05;;;;;;;1.79;91.17;101226.88;1026287;28;20285;-79
2022/01/07 01:25:38;;;;;;;27.50;11.93;;;;;;;1.79;91.59;101225.06;1018899;29;20782;-79
2022/01/07 01:26:10;;;;;;;15.73;9.85;;;;;;;1.76;91.29;101235.03;1019042;29;20283;-79
2022/01/07 01:26:41;;;;;;;20.00;9.80;;;;;;;1.74;91.66;101221.25;1022680;29;20283;-80
2022/01/07 01:27:13;;;;;;;18.17;10.32;;;;;;;1.74;91.98;101226.50;1023206;29;20376;-80
2022/01/07 01:27:44;;;;;;;19.58;9.25;;;;;;;1.68;91.80;101227.91;1027379;28;20281;-79
2022/01/07 01:28:16;;;;;;;21.98;10.43;;;;;;;1.73;92.31;101223.03;1027421;28;20662;-79
2022/01/07 01:28:47;;;;;;;20.50;9.55;;;;;;;1.75;92.29;101223.72;1027801;28;20290;-76
2022/01/07 01:29:21;;;;;;;23.00;11.65;;;;;;;1.73;92.28;101224.84;1023074;29;20321;-76
2022/01/07 01:29:52;;;;;;;17.80;9.73;;;;;;;1.73;92.00;101232.72;1023973;28;20290;-76
2022/01/07 01:30:27;;;;;;;16.30;9.73;;;;;;;1.70;92.54;101225.97;1027446;28;20304;-76
2022/01/07 01:30:59;;;;;;;19.60;10.18;;;;;;;1.71;92.47;101221.53;1024963;28;20282;-76
2022/01/07 01:31:32;;;;;;;16.88;10.93;;;;;;;1.68;92.98;101227.09;1023365;29;20282;-79
2022/01/07 01:32:05;;;;;;;17.80;10.00;;;;;;;1.68;92.55;101227.09;1019286;29;20695;-80
2022/01/07 01:32:37;;;;;;;22.88;11.13;;;;;;;1.70;93.21;101222.53;1020741;29;20287;-79
2022/01/07 01:33:11;;;;;;;18.17;9.70;;;;;;;1.68;93.30;101237.59;1024537;28;20298;-79
2022/01/07 01:33:45;;;;;;;22.73;10.35;;;;;;;1.70;92.99;101230.41;1027645;28;20285;-79
2022/01/07 01:34:16;;;;;;;14.70;9.35;;;;;;;1.73;92.96;101225.66;1022835;29;20808;-79
2022/01/07 01:34:48;;;;;;;19.25;10.77;;;;;;;1.71;93.08;101226.78;1024496;28;20290;-79
2022/01/07 01:35:20;;;;;;;20.23;10.65;;;;;;;1.69;93.12;101218.25;1019514;29;20283;-79
2022/01/07 01:35:51;;;;;;;16.52;9.70;;;;;;;1.72;92.78;101223.19;1012597;29;20287;-79
2022/01/07 01:36:23;;;;;;;19.35;10.85;;;;;;;1.68;93.05;101227.09;1011510;29;20308;-79
2022/01/07 01:36:54;;;;;;;24.85;11.43;;;;;;;1.64;93.18;101223.09;1012427;29;20295;-79
2022/01/07 01:37:26;;;;;;;21.95;12.32;;;;;;;1.68;93.75;101212.16;1015971;29;20634;-79
2022/01/07 01:37:57;;;;;;;25.42;10.95;;;;;;;1.67;93.71;101225.44;1022416;29;20817;-79
2022/01/07 01:38:30;;;;;;;19.23;10.65;;;;;;;1.68;93.66;101234.97;1024091;28;20318;-79
2022/01/07 01:39:03;;;;;;;19.73;11.00;;;;;;;1.66;93.82;101213.28;1023133;29;20297;-77
2022/01/07 01:39:34;;;;;;;21.02;10.25;;;;;;;1.64;94.03;101215.22;1020186;29;20286;-76
2022/01/07 01:40:08;;;;;;;19.30;10.70;;;;;;;1.67;93.94;101214.94;1019489;29;20291;-76
2022/01/07 01:40:39;;;;;;;24.48;11.65;;;;;;;1.67;94.16;101209.69;1020494;29;20295;-76
2022/01/07 01:41:11;;;;;;;22.65;11.65;;;;;;;1.64;93.43;101217.84;1015420;29;20319;-76
2022/01/07 01:41:43;;;;;;;16.15;11.40;;;;;;;1.58;93.71;101208.75;1015422;29;20314;-76
2022/01/07 01:42:15;;;;;;;19.77;11.57;;;;;;;1.61;94.25;101205.84;1020135;29;20279;-76
2022/01/07 01:42:47;;;;;;;16.38;11.93;;;;;;;1.62;94.16;101211.91;1023734;28;20289;-76
2022/01/07 01:43:19;;;;;;;18.55;11.90;;;;;;;1.60;94.22;101206.81;1019994;29;20660;-76
2022/01/07 01:43:51;;;;;;;21.08;11.95;;;;;;;1.60;94.38;101211.25;1023651;29;20287;-76
2022/01/07 01:44:22;;;;;;;17.60;11.45;;;;;;;1.60;94.13;101213.88;1023258;29;20736;-76
2022/01/07 01:44:54;;;;;;;21.70;13.55;;;;;;;1.55;94.85;101207.25;1023578;28;20529;-76
2022/01/07 01:45:25;;;;;;;26.55;13.25;;;;;;;1.53;94.80;101208.38;1027416;28;20313;-76
2022/01/07 01:45:57;;;;;;;26.02;11.98;;;;;;;1.52;94.88;101212.00;1027125;28;20792;-76
2022/01/07 01:46:29;;;;;;;25.50;12.50;;;;;;;1.51;95.17;101202.47;1026978;28;20908;-76
2022/01/07 01:47:02;;;;;;;18.45;12.02;;;;;;;1.51;95.09;101205.91;1027633;28;20310;-77
2022/01/07 01:47:34;;;;;;;21.05;12.40;;;;;;;1.51;95.22;101194.59;1027853;28;20308;-76
2022/01/07 01:48:05;;;;;;;25.10;11.77;;;;;;;1.49;95.02;101194.75;1026923;28;20286;-76
2022/01/07 01:48:37;;;;;;;21.38;12.18;;;;;;;1.48;95.06;101200.97;1027264;28;20281;-76
2022/01/07 01:49:09;;;;;;;21.95;12.68;;;;;;;1.48;95.09;101200.97;1027203;28;20352;-76
2022/01/07 01:49:41;;;;;;;22.52;12.38;;;;;;;1.48;95.46;101200.97;1027757;28;20646;-76
2022/01/07 01:50:14;;;;;;;17.70;12.57;;;;;;;1.47;95.60;101201.94;1031144;28;20358;-76
2022/01/07 01:50:50;;;;;;;28.85;12.73;;;;;;;1.47;95.54;101198.50;1031594;28;20649;-76
2022/01/07 01:51:21;;;;;;;17.58;12.35;;;;;;;1.43;95.95;101200.59;1027360;28;20300;-76
2022/01/07 01:51:53;;;;;;;29.20;12.50;;;;;;;1.41;96.63;101199.91;1023259;29;20651;-76
2022/01/07 01:52:24;;;;;;;22.38;11.93;;;;;;;1.43;96.13;101191.88;1022895;29;20297;-76
2022/01/07 01:52:56;;;;;;;18.45;12.32;;;;;;;1.44;96.15;101201.41;1020100;29;20287;-76
2022/01/07 01:53:30;;;;;;;25.23;12.93;;;;;;;1.41;96.50;101188.59;1015355;29;20358;-76
2022/01/07 01:54:03;;;;;;;22.58;12.05;;;;;;;1.44;96.41;101188.28;1015143;29;20284;-76
2022/01/07 01:54:34;;;;;;;18.33;12.80;;;;;;;1.39;96.40;101186.13;1015926;29;20461;-76
2022/01/07 01:55:08;;;;;;;25.52;13.32;;;;;;;1.43;96.40;101191.88;1017358;29;20283;-75
2022/01/07 01:55:40;;;;;;;22.00;12.00;;;;;;;1.40;96.49;101187.75;1023026;29;20293;-76
2022/01/07 01:56:12;;;;;;;23.80;12.88;;;;;;;1.38;96.63;101197.59;1023167;29;20832;-76
2022/01/07 01:56:43;;;;;;;21.48;14.02;;;;;;;1.36;96.71;101191.63;1024503;28;20278;-76
2022/01/07 01:57:15;;;;;;;17.60;12.38;;;;;;;1.38;96.76;101191.50;1026489;28;20355;-76
2022/01/07 01:57:47;;;;;;;19.73;13.50;;;;;;;1.39;97.19;101186.13;1027267;28;20332;-76
2022/01/07 01:58:18;;;;;;;26.58;14.10;;;;;;;1.36;97.16;101189.00;1023342;29;20306;-76
2022/01/07 01:58:50;;;;;;;22.67;13.43;;;;;;;1.34;97.00;101192.75;1019570;29;20659;-76
2022/01/07 01:59:26;;;;;;;16.90;12.02;;;;;;;1.35;97.39;101182.09;1022822;29;20555;-76
2022/01/07 01:59:58;;;;;;;21.52;12.75;;;;;;;1.35;97.29;101178.66;1024018;28;20283;-77
2022/01/07 02:00:30;;;;;;;22.10;11.68;;;;;;;1.33;97.33;101177.97;1027304;28;20300;-77
2022/01/07 02:01:02;;;;;;;24.95;14.02;;;;;;;1.30;97.81;101181.72;1023190;29;20278;-77
2022/01/07 02:01:34;;;;;;;20.33;15.02;;;;;;;1.33;97.59;101175.34;1019773;29;20696;-76
2022/01/07 02:02:08;;;;;;;27.40;14.40;;;;;;;1.31;97.76;101172.06;1019675;29;20636;-77
2022/01/07 02:02:40;;;;;;;22.52;13.55;;;;;;;1.30;97.75;101171.22;1019831;29;20294;-77
2022/01/07 02:03:11;;;;;;;22.05;13.38;;;;;;;1.33;97.82;101175.34;1024458;29;20299;-79
2022/01/07 02:03:43;;;;;;;27.77;14.43;;;;;;;1.30;98.03;101170.41;1027996;29;20818;-79
2022/01/07 02:04:14;;;;;;;25.77;14.45;;;;;;;1.31;97.85;101172.88;1025386;29;20279;-78
2022/01/07 02:04:46;;;;;;;22.77;14.38;;;;;;;1.31;98.31;101169.44;1028539;29;20262;-80
2022/01/07 02:05:18;;;;;;;20.73;13.15;;;;;;;1.31;98.03;101172.88;1029770;28;20278;-78
2022/01/07 02:05:49;;;;;;;24.40;14.95;;;;;;;1.29;98.31;101164.34;1030218;28;20282;-79
2022/01/07 02:06:21;;;;;;;29.10;14.95;;;;;;;1.26;98.07;101169.88;1027906;29;20283;-78
2022/01/07 02:06:53;;;;;;;21.02;14.25;;;;;;;1.24;97.93;101166.59;1022455;29;20303;-79
2022/01/07 02:07:26;;;;;;;19.05;13.73;;;;;;;1.22;98.33;101168.53;1021069;29;20288;-78
2022/01/07 02:07:58;;;;;;;20.75;13.43;;;;;;;1.21;98.35;101162.47;1021280;29;20289;-79
2022/01/07 02:08:30;;;;;;;24.65;15.35;;;;;;;1.23;98.50;101165.75;1020906;29;20724;-79
2022/01/07 02:09:02;;;;;;;20.88;12.68;;;;;;;1.23;98.81;101164.94;1021095;29;20441;-79
2022/01/07 02:09:35;;;;;;;21.88;14.25;;;;;;;1.20;98.53;101162.59;1024788;29;20647;-79
2022/01/07 02:10:13;;;;;;;23.17;14.15;;;;;;;1.20;99.51;101154.72;1026562;28;20289;-78
2022/01/07 02:10:44;;;;;;;24.95;13.63;;;;;;;2.12;99.15;101160.47;1028728;28;20670;-79
2022/01/07 02:11:16;;;;;;;20.77;13.38;;;;;;;1.62;98.32;101154.16;1024536;29;20294;-78
2022/01/07 02:11:47;;;;;;;27.88;15.27;;;;;;;1.47;98.11;101149.44;987466;29;1079307;-79
2022/01/07 02:12:19;;;;;;;22.77;14.70;;;;;;;1.40;98.36;101156.28;1021062;29;20043;-79
2022/01/07 02:12:51;;;;;;;21.33;14.93;;;;;;;1.43;98.41;101158.59;1024820;28;20286;-78
2022/01/07 02:13:22;;;;;;;22.38;14.55;;;;;;;1.43;98.30;101155.97;1023647;29;20279;-76
2022/01/07 02:13:55;;;;;;;19.95;13.93;;;;;;;1.50;98.35;101148.31;1023949;28;20651;-76
2022/01/07 02:14:26;;;;;;;24.95;14.00;;;;;;;1.45;98.06;101156.66;1019338;29;20287;-76
2022/01/07 02:14:58;;;;;;;27.20;15.35;;;;;;;1.46;98.00;101152.22;1016397;29;20284;-77
2022/01/07 02:15:30;;;;;;;27.40;15.23;;;;;;;1.36;98.37;101139.13;1019132;29;20283;-76
2022/01/07 02:16:01;;;;;;;21.45;14.90;;;;;;;1.34;98.23;101141.09;1019547;29;20284;-77
2022/01/07 02:16:33;;;;;;;25.52;15.13;;;;;;;1.31;98.46;101153.69;1018026;29;20306;-76
2022/01/07 02:17:09;;;;;;;27.33;15.20;;;;;;;1.33;98.82;101144.69;1017089;29;20294;-76
2022/01/07 02:17:44;;;;;;;20.10;12.15;;;;;;;1.34;98.55;101146.34;1016523;29;20811;-76
2022/01/07 02:18:17;;;;;;;27.90;14.10;;;;;;;1.33;98.37;101143.88;1017618;29;20839;-77
2022/01/07 02:18:48;;;;;;;21.90;13.60;;;;;;;1.36;98.81;101143.56;1019395;29;20815;-76
2022/01/07 02:19:20;;;;;;;25.45;15.88;;;;;;;1.31;99.19;101136.16;1020464;29;20331;-75
2022/01/07 02:19:54;;;;;;;25.05;14.63;;;;;;;1.29;98.84;101143.34;1024146;28;20667;-76
2022/01/07 02:20:28;;;;;;;25.65;15.35;;;;;;;1.34;99.22;101135.84;1028074;28;20503;-76
2022/01/07 02:21:00;;;;;;;18.98;13.18;;;;;;;1.32;99.15;101132.53;1031359;28;20753;-77
2022/01/07 02:21:35;;;;;;;27.83;14.50;;;;;;;1.30;99.18;101133.66;1027621;28;20290;-76
2022/01/07 02:22:07;;;;;;;23.65;14.23;;;;;;;1.30;99.20;101139.75;1025113;28;20726;-76
2022/01/07 02:22:39;;;;;;;20.05;14.40;;;;;;;1.26;99.37;101134.94;1024267;28;20287;-76
2022/01/07 02:23:11;;;;;;;26.92;15.30;;;;;;;1.28;99.24;101136.44;1019546;29;20298;-76
2022/01/07 02:23:42;;;;;;;24.80;15.20;;;;;;;1.32;99.53;101135.16;1020078;29;20293;-76
2022/01/07 02:24:13;;;;;;;19.58;13.93;;;;;;;1.31;99.62;101130.06;1022758;29;20647;-75
2022/01/07 02:24:46;;;;;;;20.30;15.00;;;;;;;1.30;99.69;101117.94;1020110;28;20284;-76
2022/01/07 02:25:20;;;;;;;25.10;14.95;;;;;;;1.28;99.21;101118.06;1023804;29;20298;-75
2022/01/07 02:25:52;;;;;;;28.58;15.82;;;;;;;1.31;99.14;101120.41;1020495;29;20431;-76
2022/01/07 02:26:24;;;;;;;27.50;16.15;;;;;;;1.26;99.48;101127.91;1023262;29;20374;-75
2022/01/07 02:26:56;;;;;;;27.73;15.55;;;;;;;1.28;99.12;101131.19;1019659;29;20306;-76
2022/01/07 02:27:28;;;;;;;21.60;14.38;;;;;;;1.28;99.69;101125.13;1019577;29;20295;-75
2022/01/07 02:28:00;;;;;;;25.52;15.30;;;;;;;1.26;99.53;101112.16;1022252;29;20327;-75
2022/01/07 02:28:34;;;;;;;30.15;15.77;;;;;;;1.24;99.29;101120.19;1023970;28;20298;-76